Time;durP1;ratioP1;P1;durP2;ratioP2;P2;SDS_P1;SDS_P2;PMS_P1;PMS_P2;Temp;Humidity;BMP_temperature;BMP_pressure;BME280_temperature;BME280_humidity;BME280_pressure;Samples;Min_cycle;Max_cycle;Signal;HPM_P1;HPM_P2
2023/01/04 00:00:03;;;;;;;15.93;5.88;;;;;;;7.89;100.00;101699.84;4990802;28;20058;-92
2023/01/04 00:02:28;;;;;;;16.90;6.60;;;;;;;7.87;100.00;101684.63;4988739;28;20030;-90
2023/01/04 00:04:53;;;;;;;13.80;6.13;;;;;;;7.88;100.00;101692.63;4986202;28;20045;-92
2023/01/04 00:07:19;;;;;;;26.40;7.70;;;;;;;7.90;100.00;101686.72;4982916;28;20483;-90
2023/01/04 00:09:44;;;;;;;24.83;8.82;;;;;;;7.89;100.00;101677.56;4985640;28;20045;-94
2023/01/04 00:12:10;;;;;;;20.88;6.65;;;;;;;7.89;100.00;101683.13;4988571;28;20038;-93
2023/01/04 00:14:35;;;;;;;14.23;5.93;;;;;;;7.70;100.00;101654.94;4980945;28;20474;-90
2023/01/04 00:17:00;;;;;;;16.75;6.50;;;;;;;7.88;100.00;101659.19;4992053;28;20512;-92
2023/01/04 00:19:26;;;;;;;22.98;7.28;;;;;;;7.84;100.00;101652.69;4991392;28;20371;-92
2023/01/04 00:21:52;;;;;;;17.70;6.18;;;;;;;7.80;100.00;101648.13;4993081;28;20069;-92
2023/01/04 00:24:17;;;;;;;16.33;7.63;;;;;;;7.72;100.00;101631.13;4992606;28;20482;-91
2023/01/04 00:26:43;;;;;;;17.77;6.95;;;;;;;7.74;100.00;101639.16;4993935;28;20034;-94
2023/01/04 00:29:11;;;;;;;28.73;6.53;;;;;;;7.62;100.00;101611.22;4991457;28;20026;-93
2023/01/04 00:31:36;;;;;;;11.85;6.88;;;;;;;7.74;100.00;101619.66;5003950;28;20053;-92
2023/01/04 00:34:03;;;;;;;19.05;7.35;;;;;;;7.69;100.00;101630.97;4990089;28;20038;-94
2023/01/04 00:36:29;;;;;;;15.70;6.40;;;;;;;7.70;100.00;101613.13;4989517;28;20061;-93
2023/01/04 00:39:07;;;;;;;29.52;9.13;;;;;;;7.71;100.00;101620.31;4992518;28;20138;-95
2023/01/04 00:41:34;;;;;;;17.45;6.18;;;;;;;7.69;100.00;101619.84;4985965;28;20037;-93
2023/01/04 00:44:02;;;;;;;19.63;6.32;;;;;;;7.67;100.00;101599.84;4990693;28;20038;-94
2023/01/04 00:46:27;;;;;;;17.65;6.80;;;;;;;7.68;100.00;101585.59;5008818;28;20058;-94
2023/01/04 00:48:53;;;;;;;15.10;6.38;;;;;;;7.62;100.00;101575.00;5008446;28;20153;-94
2023/01/04 00:51:18;;;;;;;19.90;6.88;;;;;;;7.59;100.00;101565.34;5007396;28;20030;-95
2023/01/04 00:53:43;;;;;;;18.52;7.55;;;;;;;7.65;100.00;101580.72;4992616;28;20030;-96
2023/01/04 00:56:09;;;;;;;14.98;6.43;;;;;;;7.54;100.00;101565.56;4990467;28;20038;-95
2023/01/04 00:58:34;;;;;;;19.27;7.03;;;;;;;7.57;100.00;101558.47;5001933;28;20068;-95
2023/01/04 01:01:07;;;;;;;18.85;7.70;;;;;;;7.51;100.00;101553.13;4986426;28;20060;-95
2023/01/04 01:03:33;;;;;;;12.93;6.75;;;;;;;7.48;100.00;101522.34;4990525;28;20494;-94
2023/01/04 01:06:06;;;;;;;14.55;6.90;;;;;;;7.57;100.00;101541.75;4988096;28;20048;-94
2023/01/04 01:08:32;;;;;;;22.90;8.18;;;;;;;7.69;100.00;101537.06;4988835;28;20050;-95
2023/01/04 01:11:04;;;;;;;18.80;6.05;;;;;;;7.72;100.00;101538.38;4991544;28;20030;-94
2023/01/04 01:13:30;;;;;;;13.15;6.20;;;;;;;7.59;100.00;101518.00;4990459;28;20410;-93
2023/01/04 01:15:55;;;;;;;14.18;7.15;;;;;;;7.63;100.00;101501.38;4987560;28;20038;-95
2023/01/04 01:18:20;;;;;;;17.15;7.38;;;;;;;7.63;100.00;101491.09;4998595;28;20034;-93
2023/01/04 01:20:46;;;;;;;18.98;6.97;;;;;;;7.52;100.00;101496.25;4991349;28;20041;-91
2023/01/04 01:23:14;;;;;;;17.05;6.18;;;;;;;7.54;100.00;101499.50;4991666;28;20513;-95
2023/01/04 01:25:41;;;;;;;17.90;7.25;;;;;;;7.66;100.00;101498.75;4994754;28;20030;-94
2023/01/04 01:28:07;;;;;;;22.45;7.70;;;;;;;7.57;100.00;101469.31;4985809;28;20139;-93
2023/01/04 01:30:33;;;;;;;15.88;6.75;;;;;;;7.66;100.00;101481.22;4990202;28;20041;-94
2023/01/04 01:32:58;;;;;;;14.68;5.82;;;;;;;7.66;100.00;101472.84;4984106;28;20553;-91
2023/01/04 01:35:23;;;;;;;11.70;5.72;;;;;;;7.69;100.00;101466.59;4989892;28;20034;-93
2023/01/04 01:37:49;;;;;;;12.35;5.95;;;;;;;7.71;100.00;101458.69;4987259;28;20100;-96
2023/01/04 01:40:14;;;;;;;10.95;5.28;;;;;;;7.69;100.00;101444.28;4989229;28;20044;-90
2023/01/04 01:42:39;;;;;;;16.42;6.38;;;;;;;7.71;100.00;101469.84;4986179;28;20030;-94
2023/01/04 01:45:20;;;;;;;16.38;5.38;;;;;;;7.74;100.00;101463.59;5003438;28;20048;-93
2023/01/04 01:47:49;;;;;;;16.38;6.60;;;;;;;7.80;100.00;101419.56;4985728;28;20392;-95
2023/01/04 01:50:25;;;;;;;19.48;6.47;;;;;;;7.66;100.00;101433.84;4996156;28;20084;-94
2023/01/04 01:52:53;;;;;;;9.45;4.90;;;;;;;7.73;100.00;101431.28;5002275;28;20425;-95
2023/01/04 01:55:18;;;;;;;15.63;6.63;;;;;;;7.81;100.00;101446.31;4983419;28;20395;-95
2023/01/04 01:57:48;;;;;;;14.60;5.93;;;;;;;7.78;100.00;101427.47;4984280;28;20026;-94
2023/01/04 02:00:15;;;;;;;12.80;5.60;;;;;;;7.78;100.00;101414.38;4988677;28;20030;-94
2023/01/04 02:02:48;;;;;;;9.48;4.57;;;;;;;7.82;100.00;101420.06;4992067;28;20026;-94
2023/01/04 02:05:14;;;;;;;9.70;5.13;;;;;;;7.73;100.00;101412.59;4989200;28;20064;-94
2023/01/04 02:07:39;;;;;;;7.05;4.22;;;;;;;7.88;100.00;101425.03;4985736;28;20066;-93
2023/01/04 02:10:05;;;;;;;10.98;4.65;;;;;;;7.88;100.00;101436.19;5004963;28;20018;-93
2023/01/04 02:12:31;;;;;;;13.35;6.13;;;;;;;7.91;100.00;101415.19;4986554;28;20992;-92
2023/01/04 02:14:56;;;;;;;7.93;4.05;;;;;;;7.89;100.00;101412.75;5006305;28;20061;-91
2023/01/04 02:17:47;;;;;;;17.60;5.32;;;;;;;7.96;100.00;101403.00;4985382;28;20060;-93
2023/01/04 02:20:29;;;;;;;13.73;4.25;;;;;;;7.98;100.00;101403.47;4990223;28;20030;-93
2023/01/04 02:23:08;;;;;;;13.23;4.68;;;;;;;7.96;100.00;101403.00;5001722;28;20445;-92
2023/01/04 02:25:47;;;;;;;8.77;4.03;;;;;;;8.06;100.00;101403.34;4988247;28;20042;-93
2023/01/04 02:28:43;;;;;;;4.50;3.17;;;;;;;8.04;100.00;101382.56;5003398;28;20065;-92
2023/01/04 02:31:36;;;;;;;10.68;3.25;;;;;;;8.15;100.00;101392.09;4989879;28;20042;-92
2023/01/04 02:34:15;;;;;;;;;;;;;;;8.20;100.00;101386.28;4987276;28;20121;-91
2023/01/04 02:37:03;;;;;;;5.53;3.30;;;;;;;8.19;100.00;101379.06;4986519;28;20404;-92
2023/01/04 02:39:28;;;;;;;8.23;3.33;;;;;;;8.23;100.00;101374.44;4996740;28;20022;-93
2023/01/04 02:42:06;;;;;;;9.20;3.22;;;;;;;8.24;100.00;101353.75;5006757;28;20030;-93
2023/01/04 02:44:52;;;;;;;7.47;3.03;;;;;;;8.40;100.00;101366.97;5000683;28;20035;-92
2023/01/04 02:50:29;;;;;;;4.15;2.70;;;;;;;8.39;100.00;101365.31;4986422;28;20105;-93
2023/01/04 02:50:32;;;;;;;7.72;3.90;;;;;;;8.40;100.00;101351.03;4992335;28;20041;-92
2023/01/04 02:53:11;;;;;;;8.43;3.45;;;;;;;8.51;100.00;101345.81;4982894;28;20038;-92
2023/01/04 02:55:55;;;;;;;11.30;5.07;;;;;;;8.55;100.00;101346.75;5003665;28;20037;-93
2023/01/04 02:58:29;;;;;;;9.13;3.80;;;;;;;8.54;100.00;101336.75;5000574;28;20034;-94
2023/01/04 03:08:04;;;;;;;15.07;5.35;;;;;;;8.64;100.00;101333.44;4987813;28;20093;-92
2023/01/04 03:10:39;;;;;;;16.40;5.13;;;;;;;8.65;100.00;101329.50;4984122;28;20488;-92
2023/01/04 03:13:20;;;;;;;11.80;6.00;;;;;;;8.63;100.00;101326.25;4999081;28;20497;-91
2023/01/04 03:15:52;;;;;;;9.63;5.10;;;;;;;8.48;100.00;101308.28;4987405;28;20151;-94
2023/01/04 03:18:25;;;;;;;11.93;5.43;;;;;;;8.65;100.00;101329.50;4990422;28;20110;-94
2023/01/04 03:20:54;;;;;;;11.70;5.50;;;;;;;8.50;100.00;101299.56;4988245;28;20034;-93
2023/01/04 03:43:08;;;;;;;17.15;5.97;;;;;;;8.66;100.00;101314.38;4986451;28;20038;-91
2023/01/04 03:49:12;;;;;;;18.83;6.97;;;;;;;8.84;100.00;101314.91;4984130;28;20066;-91
2023/01/04 03:51:38;;;;;;;9.65;5.30;;;;;;;8.75;100.00;101301.09;4983052;28;20034;-90
2023/01/04 03:54:25;;;;;;;13.88;6.50;;;;;;;8.88;100.00;101306.63;4999231;28;20506;-91
2023/01/04 03:56:51;;;;;;;13.93;6.60;;;;;;;8.85;100.00;101307.31;4985250;28;20283;-91
2023/01/04 03:59:21;;;;;;;14.95;6.50;;;;;;;8.84;100.00;101306.53;4985870;28;20026;-91
2023/01/04 04:01:47;;;;;;;14.35;7.30;;;;;;;8.99;100.00;101321.69;4985024;28;20061;-92
2023/01/04 04:09:41;;;;;;;15.98;7.70;;;;;;;9.03;100.00;101308.66;4987851;28;20048;-91
2023/01/04 04:12:06;;;;;;;16.67;8.07;;;;;;;9.01;100.00;101305.41;4985936;28;20038;-90
2023/01/04 04:14:31;;;;;;;17.00;8.10;;;;;;;8.99;100.00;101293.78;4984210;28;20031;-91
2023/01/04 04:16:56;;;;;;;20.67;9.68;;;;;;;9.03;100.00;101291.88;4999493;28;20037;-90
2023/01/04 04:19:22;;;;;;;17.90;8.27;;;;;;;9.02;100.00;101283.84;4986804;28;20126;-92
2023/01/04 04:21:47;;;;;;;16.20;8.23;;;;;;;9.03;100.00;101266.75;4985317;28;20034;-91
2023/01/04 04:24:19;;;;;;;12.70;7.60;;;;;;;8.99;100.00;101281.78;4985461;28;20026;-90
2023/01/04 04:26:44;;;;;;;14.13;8.00;;;;;;;8.98;100.00;101261.44;4986042;28;20034;-92
2023/01/04 04:29:10;;;;;;;19.55;9.52;;;;;;;8.94;100.00;101257.75;5000389;28;20034;-92
2023/01/04 04:31:35;;;;;;;16.27;8.45;;;;;;;9.05;100.00;101252.44;4985102;28;20049;-91
2023/01/04 04:34:01;;;;;;;18.75;9.02;;;;;;;9.08;100.00;101263.69;4984920;28;20373;-91
2023/01/04 04:36:27;;;;;;;15.93;8.05;;;;;;;9.04;100.00;101250.81;5002484;28;20053;-90
2023/01/04 04:38:52;;;;;;;19.70;10.00;;;;;;;9.17;100.00;101263.53;4985194;28;20546;-91
2023/01/04 04:44:01;;;;;;;22.38;10.07;;;;;;;9.22;100.00;101248.50;4978928;28;20033;-90
2023/01/04 04:46:27;;;;;;;15.82;8.77;;;;;;;9.22;100.00;101248.50;4989633;28;20023;-90
2023/01/04 04:48:52;;;;;;;19.73;10.05;;;;;;;9.28;100.00;101249.84;4988720;28;20125;-91
2023/01/04 04:51:18;;;;;;;21.75;10.98;;;;;;;9.30;100.00;101237.16;4990692;28;20031;-91
2023/01/04 04:53:43;;;;;;;17.40;9.05;;;;;;;9.31;100.00;101221.19;4985589;28;20535;-91
2023/01/04 04:56:09;;;;;;;18.05;9.55;;;;;;;9.32;100.00;101215.25;4985550;28;20049;-91
2023/01/04 04:58:35;;;;;;;19.77;10.15;;;;;;;9.25;100.00;101222.63;4983297;28;20443;-91
2023/01/04 05:01:00;;;;;;;17.27;9.73;;;;;;;9.40;100.00;101224.59;5000957;28;20034;-92
2023/01/04 05:03:25;;;;;;;20.73;10.88;;;;;;;9.44;100.00;101213.50;4985106;28;20383;-91
2023/01/04 05:05:51;;;;;;;21.25;10.52;;;;;;;9.44;100.00;101222.69;4989227;28;20026;-90
2023/01/04 05:08:16;;;;;;;20.48;9.85;;;;;;;9.38;100.00;101192.59;4991941;28;20073;-92
2023/01/04 05:10:42;;;;;;;21.02;9.90;;;;;;;9.52;100.00;101221.69;4988171;28;20038;-91
2023/01/04 05:13:11;;;;;;;22.92;10.52;;;;;;;9.66;100.00;101224.03;4989578;28;20129;-91
2023/01/04 05:15:39;;;;;;;19.90;10.65;;;;;;;9.72;100.00;101228.19;4988306;28;20041;-90
2023/01/04 05:18:06;;;;;;;22.73;10.50;;;;;;;9.68;100.00;101223.69;4992707;28;20054;-89
2023/01/04 05:20:31;;;;;;;20.63;10.85;;;;;;;9.71;100.00;101200.59;5002828;28;20026;-89
2023/01/04 05:22:57;;;;;;;23.55;10.95;;;;;;;9.75;100.00;101207.06;4993480;28;20018;-92
2023/01/04 05:25:22;;;;;;;19.08;9.98;;;;;;;9.76;100.00;101200.28;4992837;28;20100;-90
2023/01/04 05:27:48;;;;;;;21.10;10.23;;;;;;;9.76;100.00;101208.66;4989647;28;20027;-90
2023/01/04 05:32:59;;;;;;;16.75;8.15;;;;;;;9.83;100.00;101194.88;4989885;28;20065;-90
2023/01/04 05:35:24;;;;;;;17.60;8.82;;;;;;;9.88;100.00;101200.16;4985470;28;20113;-89
2023/01/04 05:37:50;;;;;;;16.42;8.75;;;;;;;9.92;100.00;101184.28;4985338;28;20029;-90
2023/01/04 05:40:15;;;;;;;16.75;8.35;;;;;;;9.69;100.00;101172.19;4991596;28;20033;-90
2023/01/04 05:42:41;;;;;;;18.35;7.75;;;;;;;9.93;100.00;101185.91;4985143;28;20045;-91
2023/01/04 05:45:06;;;;;;;19.40;7.70;;;;;;;9.85;100.00;101167.38;4985348;28;20372;-90
2023/01/04 05:47:32;;;;;;;15.45;7.53;;;;;;;9.91;100.00;101171.50;4983861;28;20038;-90
2023/01/04 05:49:58;;;;;;;14.18;7.85;;;;;;;9.88;100.00;101177.81;4986138;28;20023;-90
2023/01/04 05:52:23;;;;;;;12.85;6.93;;;;;;;9.87;100.00;101172.59;4984887;28;20026;-90
2023/01/04 05:54:48;;;;;;;10.95;6.43;;;;;;;9.83;100.00;101138.97;4977060;28;20123;-90
2023/01/04 05:57:15;;;;;;;12.63;5.90;;;;;;;9.93;100.00;101151.56;4998208;28;20512;-90
2023/01/04 05:59:40;;;;;;;12.85;6.15;;;;;;;9.81;100.00;101135.72;4983555;28;20041;-90
2023/01/04 06:02:06;;;;;;;12.27;6.47;;;;;;;9.79;100.00;101137.25;4974838;28;20038;-90
2023/01/04 06:04:31;;;;;;;9.50;5.57;;;;;;;9.82;100.00;101128.94;4992680;28;20022;-90
2023/01/04 06:06:56;;;;;;;17.85;6.70;;;;;;;9.97;100.00;101139.25;4984312;28;21335;-88
2023/01/04 06:09:23;;;;;;;15.32;5.95;;;;;;;9.82;100.00;101117.75;4977396;28;20089;-87
2023/01/04 06:11:49;;;;;;;11.43;5.15;;;;;;;9.86;100.00;101123.44;4987636;28;20459;-88
2023/01/04 06:14:14;;;;;;;11.65;5.55;;;;;;;9.90;100.00;101141.09;4974653;28;20026;-87
2023/01/04 06:16:40;;;;;;;12.73;5.60;;;;;;;9.97;100.00;101147.66;4978759;28;20041;-87
2023/01/04 06:19:05;;;;;;;7.80;4.97;;;;;;;9.78;100.00;101128.03;4983966;28;20306;-87
2023/01/04 06:21:31;;;;;;;10.45;4.75;;;;;;;9.98;100.00;101154.06;4983007;28;20125;-86
2023/01/04 06:23:56;;;;;;;8.65;4.75;;;;;;;9.83;100.00;101119.38;4970852;28;20410;-87
2023/01/04 06:26:21;;;;;;;10.73;5.03;;;;;;;9.96;100.00;101111.66;4975940;28;20031;-88
2023/01/04 06:28:47;;;;;;;7.95;4.97;;;;;;;10.02;100.00;101131.75;4968377;28;20131;-87
2023/01/04 06:31:12;;;;;;;11.43;4.70;;;;;;;9.93;100.00;101152.34;4994209;28;20034;-87
2023/01/04 06:33:38;;;;;;;5.43;3.78;;;;;;;10.00;100.00;101148.91;4986380;28;20483;-87
2023/01/04 06:36:05;;;;;;;10.07;4.63;;;;;;;9.94;100.00;101153.97;4983929;28;20030;-87
2023/01/04 06:38:31;;;;;;;8.10;4.63;;;;;;;9.95;100.00;101158.41;4996475;28;20027;-87
2023/01/04 06:40:57;;;;;;;8.10;4.72;;;;;;;10.05;100.00;101167.38;4996399;28;20092;-86
2023/01/04 06:43:22;;;;;;;11.32;5.05;;;;;;;9.97;100.00;101158.84;4998840;28;20482;-87
2023/01/04 06:45:47;;;;;;;8.02;4.32;;;;;;;10.05;100.00;101161.78;4983753;28;20144;-88
2023/01/04 06:48:13;;;;;;;10.32;5.40;;;;;;;10.04;100.00;101166.56;4999695;28;20049;-86
2023/01/04 06:50:38;;;;;;;5.72;4.10;;;;;;;9.95;100.00;101177.97;5001198;28;20175;-86
2023/01/04 06:53:03;;;;;;;10.43;5.25;;;;;;;10.05;100.00;101176.56;4988292;28;20058;-86
2023/01/04 06:55:29;;;;;;;10.63;4.35;;;;;;;9.98;100.00;101171.63;4988641;28;20046;-86
2023/01/04 06:57:55;;;;;;;6.47;4.43;;;;;;;10.02;100.00;101160.53;4981818;28;20098;-86
2023/01/04 07:00:21;;;;;;;8.75;5.05;;;;;;;10.63;100.00;101160.97;4994905;28;20022;-83
2023/01/04 07:02:46;;;;;;;7.68;4.03;;;;;;;10.65;100.00;101153.00;4998478;28;20034;-87
2023/01/04 07:05:11;;;;;;;11.52;4.50;;;;;;;10.37;100.00;101154.88;4984737;28;20026;-87
2023/01/04 07:07:37;;;;;;;5.15;3.72;;;;;;;10.27;100.00;101161.06;4982158;28;20077;-86
2023/01/04 07:10:03;;;;;;;10.95;3.95;;;;;;;10.22;100.00;101143.75;5004914;28;20030;-87
2023/01/04 07:12:28;;;;;;;7.35;4.43;;;;;;;10.24;100.00;101139.38;5004976;28;20030;-87
2023/01/04 07:14:54;;;;;;;8.75;5.55;;;;;;;10.19;100.00;101150.88;4990929;28;20037;-86
2023/01/04 07:17:19;;;;;;;11.15;5.68;;;;;;;10.21;100.00;101145.75;4986937;28;20754;-85
2023/01/04 07:19:44;;;;;;;9.15;4.78;;;;;;;10.19;100.00;101131.31;4984064;28;20178;-85
2023/01/04 07:22:10;;;;;;;7.95;5.05;;;;;;;10.22;100.00;101124.16;4993204;28;20050;-84
2023/01/04 07:24:35;;;;;;;7.90;4.78;;;;;;;10.24;100.00;101117.00;4985028;28;20479;-87
2023/01/04 07:27:01;;;;;;;10.32;5.63;;;;;;;10.26;100.00;101120.25;4989937;28;20050;-86
2023/01/04 07:29:27;;;;;;;12.00;5.47;;;;;;;10.31;100.00;101111.59;4987344;28;20026;-88
2023/01/04 07:31:52;;;;;;;12.10;5.72;;;;;;;10.31;100.00;101122.78;5007192;28;20045;-87
2023/01/04 07:34:20;;;;;;;13.07;5.30;;;;;;;10.30;100.00;101120.34;4989545;28;20121;-87
2023/01/04 07:36:46;;;;;;;13.77;5.90;;;;;;;10.30;100.00;101109.16;5008816;28;20438;-87
2023/01/04 07:39:12;;;;;;;15.70;5.82;;;;;;;10.29;100.00;101113.13;4990293;28;20558;-87
2023/01/04 07:41:39;;;;;;;9.13;5.13;;;;;;;10.29;100.00;101094.38;4988363;28;20057;-87
2023/01/04 07:44:06;;;;;;;11.18;5.07;;;;;;;10.32;100.00;101095.63;5004095;28;20112;-87
2023/01/04 07:46:32;;;;;;;10.20;5.40;;;;;;;10.36;100.00;101111.28;4992424;28;20026;-88
2023/01/04 07:48:57;;;;;;;11.15;5.95;;;;;;;10.29;100.00;101102.75;4992768;28;20026;-88
2023/01/04 07:51:23;;;;;;;15.43;6.03;;;;;;;10.36;100.00;101104.88;4990555;28;20080;-90
2023/01/04 07:53:48;;;;;;;13.38;6.03;;;;;;;10.32;100.00;101101.22;4990620;28;20038;-88
2023/01/04 07:56:14;;;;;;;10.68;5.35;;;;;;;10.38;100.00;101094.13;4989069;28;20113;-86
2023/01/04 07:58:40;;;;;;;12.55;5.50;;;;;;;10.33;100.00;101108.41;4988506;28;20041;-87
2023/01/04 08:01:12;;;;;;;10.23;6.10;;;;;;;10.32;100.00;101090.03;4988061;28;20371;-87
2023/01/04 08:03:38;;;;;;;14.38;6.05;;;;;;;10.36;100.00;101090.91;4989319;28;20033;-87
2023/01/04 08:06:05;;;;;;;9.95;6.32;;;;;;;10.40;100.00;101086.19;5004302;28;20037;-86
2023/01/04 08:08:31;;;;;;;13.82;6.07;;;;;;;10.25;100.00;101087.88;4988774;28;20053;-86
2023/01/04 08:11:04;;;;;;;9.98;5.38;;;;;;;10.44;100.00;101095.44;4991687;28;20030;-85
2023/01/04 08:13:29;;;;;;;16.70;6.43;;;;;;;10.38;100.00;101092.13;4987813;28;20034;-86
2023/01/04 08:15:55;;;;;;;8.77;5.03;;;;;;;10.40;100.00;101085.38;4990143;28;20033;-85
2023/01/04 08:18:21;;;;;;;9.88;5.10;;;;;;;10.40;100.00;101086.19;4988825;28;20030;-87
2023/01/04 08:20:46;;;;;;;11.80;5.10;;;;;;;10.44;100.00;101097.44;4981636;28;20030;-86
2023/01/04 08:23:11;;;;;;;10.57;5.03;;;;;;;10.42;100.00;101095.00;4990466;28;20028;-86
2023/01/04 08:25:40;;;;;;;8.30;5.00;;;;;;;10.41;100.00;101087.78;4990105;28;20040;-85
2023/01/04 08:28:05;;;;;;;8.88;5.18;;;;;;;10.43;100.00;101109.81;4987517;28;20031;-85
2023/01/04 08:30:31;;;;;;;7.13;4.70;;;;;;;10.47;100.00;101091.88;4978302;28;20037;-88
2023/01/04 08:32:56;;;;;;;7.15;4.60;;;;;;;10.45;100.00;101096.25;4992175;28;20057;-88
2023/01/04 08:35:22;;;;;;;11.25;4.82;;;;;;;10.49;100.00;101083.94;4987258;28;20390;-89
2023/01/04 08:37:48;;;;;;;9.15;4.10;;;;;;;10.48;100.00;101075.94;4975730;28;20039;-89
2023/01/04 08:40:13;;;;;;;11.02;3.88;;;;;;;10.49;100.00;101088.72;4998529;28;20074;-90
2023/01/04 08:42:38;;;;;;;5.72;3.50;;;;;;;10.52;100.00;101079.56;4991596;28;20121;-92
2023/01/04 08:45:05;;;;;;;5.05;3.15;;;;;;;10.44;100.00;101072.25;4981761;28;20105;-92
2023/01/04 08:47:31;;;;;;;5.05;3.40;;;;;;;10.53;100.00;101084.81;5002645;28;20154;-95
2023/01/04 08:49:57;;;;;;;8.90;3.17;;;;;;;10.43;100.00;101079.03;5011233;28;20541;-87
2023/01/04 08:52:23;;;;;;;8.57;3.25;;;;;;;10.41;100.00;101064.59;4995416;28;20026;-86
2023/01/04 08:54:49;;;;;;;7.55;3.30;;;;;;;10.54;100.00;101086.44;4995212;28;20054;-90
2023/01/04 08:57:18;;;;;;;5.10;3.00;;;;;;;10.44;100.00;101063.88;5011585;28;20034;-89
2023/01/04 08:59:43;;;;;;;9.52;2.88;;;;;;;10.49;100.00;101080.34;4994443;28;20125;-89
2023/01/04 09:02:20;;;;;;;8.45;3.35;;;;;;;10.52;100.00;101099.16;5008370;28;20117;-88
2023/01/04 09:04:46;;;;;;;6.25;3.10;;;;;;;10.46;100.00;101095.09;4994958;28;20022;-88
2023/01/04 09:07:11;;;;;;;8.15;3.35;;;;;;;10.53;100.00;101092.41;4993961;28;20030;-88
2023/01/04 09:09:36;;;;;;;3.38;2.20;;;;;;;10.52;100.00;101099.16;5004702;28;20065;-90
2023/01/04 09:12:02;;;;;;;4.30;2.58;;;;;;;10.46;100.00;101086.69;4995481;28;20030;-91
2023/01/04 09:14:27;;;;;;;5.15;2.03;;;;;;;10.47;100.00;101091.09;4993408;28;20037;-87
2023/01/04 09:16:52;;;;;;;2.97;2.08;;;;;;;10.56;100.00;101100.88;4990745;28;20076;-86
2023/01/04 09:19:18;;;;;;;5.65;2.20;;;;;;;10.53;100.00;101098.00;4993162;28;20027;-88
2023/01/04 09:21:43;;;;;;;4.18;2.10;;;;;;;10.55;100.00;101104.84;4994162;28;20394;-87
2023/01/04 09:24:08;;;;;;;5.30;2.13;;;;;;;10.57;100.00;101102.47;4996004;28;20061;-85
2023/01/04 09:26:34;;;;;;;4.68;2.72;;;;;;;10.56;100.00;101100.88;4995193;28;20041;-87
2023/01/04 09:28:59;;;;;;;7.40;2.70;;;;;;;10.58;100.00;101092.06;4987361;28;20033;-87
2023/01/04 09:31:27;;;;;;;3.28;2.05;;;;;;;10.60;100.00;101109.31;4988063;28;20405;-87
2023/01/04 09:33:54;;;;;;;2.42;1.70;;;;;;;10.60;100.00;101103.72;4993644;28;20034;-88
2023/01/04 09:36:20;;;;;;;3.72;2.00;;;;;;;10.64;100.00;101118.59;5004749;28;20022;-88
2023/01/04 09:38:45;;;;;;;3.47;2.08;;;;;;;10.52;100.00;101100.00;4993306;28;20081;-88
2023/01/04 09:41:26;;;;;;;4.28;2.70;;;;;;;10.66;100.00;101126.63;4992135;28;20069;-89
2023/01/04 09:43:53;;;;;;;2.63;1.60;;;;;;;10.66;100.00;101119.03;4990406;28;20033;-85
2023/01/04 09:46:25;;;;;;;3.70;1.88;;;;;;;10.70;100.00;101117.09;5005237;28;20769;-85
2023/01/04 09:48:55;;;;;;;5.68;2.25;;;;;;;10.68;100.00;101127.84;4985669;28;20474;-85
2023/01/04 09:51:27;;;;;;;2.95;1.95;;;;;;;10.61;100.00;101108.16;4991691;28;20030;-89
2023/01/04 09:53:59;;;;;;;2.88;1.95;;;;;;;10.71;100.00;101117.91;4990955;28;20038;-89
2023/01/04 09:56:36;;;;;;;2.35;1.75;;;;;;;10.69;100.00;101132.28;5003116;28;20056;-88
2023/01/04 09:59:07;;;;;;;2.42;1.70;;;;;;;10.68;100.00;101127.06;4983978;28;20041;-86
2023/01/04 10:01:42;;;;;;;3.47;1.70;;;;;;;10.69;100.00;101126.69;4996005;28;20029;-86
2023/01/04 10:04:21;;;;;;;2.85;1.83;;;;;;;10.73;100.00;101138.75;5000704;28;20026;-86
2023/01/04 10:06:47;;;;;;;3.45;2.38;;;;;;;10.72;100.00;101130.72;4999404;28;20034;-86
2023/01/04 10:09:14;;;;;;;5.35;2.10;;;;;;;10.71;100.00;101124.31;4992145;28;20430;-86
2023/01/04 10:11:53;;;;;;;2.95;1.98;;;;;;;10.70;100.00;101127.50;4987332;28;20041;-86
2023/01/04 10:14:33;;;;;;;3.28;2.20;;;;;;;10.70;100.00;101124.69;4991638;28;20034;-88
2023/01/04 10:17:10;;;;;;;3.88;2.58;;;;;;;10.70;100.00;101122.69;4990957;28;20034;-87
2023/01/04 10:20:04;;;;;;;5.60;2.70;;;;;;;10.76;100.00;101121.22;5006430;28;20029;-90
2023/01/04 10:22:46;;;;;;;4.65;2.40;;;;;;;10.77;100.00;101122.00;4993048;28;20470;-87
2023/01/04 10:25:49;;;;;;;4.25;2.90;;;;;;;10.77;100.00;101116.41;4991029;28;20477;-88
2023/01/04 10:28:29;;;;;;;3.88;2.78;;;;;;;10.77;100.00;101120.03;4990170;28;20027;-89
2023/01/04 10:30:57;;;;;;;6.80;3.55;;;;;;;10.81;100.00;101122.88;5009934;28;20026;-88
2023/01/04 10:33:40;;;;;;;4.20;2.65;;;;;;;10.84;100.00;101115.75;4994859;28;20030;-91
2023/01/04 10:36:19;;;;;;;6.15;2.90;;;;;;;10.86;100.00;101119.78;5005844;28;20094;-92
2023/01/04 10:38:45;;;;;;;4.10;2.78;;;;;;;10.75;100.00;101114.00;5008733;28;20030;-93
2023/01/04 10:41:20;;;;;;;4.82;2.75;;;;;;;10.88;100.00;101110.97;4989305;28;20034;-90
2023/01/04 10:44:25;;;;;;;7.90;2.75;;;;;;;10.92;100.00;101097.84;4988343;28;20030;-84
2023/01/04 10:47:03;;;;;;;10.15;4.07;;;;;;;10.93;100.00;101102.28;4992410;28;20108;-87
2023/01/04 10:49:48;;;;;;;8.25;3.47;;;;;;;10.94;100.00;101098.28;4982440;28;20030;-86
2023/01/04 10:52:24;;;;;;;8.50;3.28;;;;;;;10.96;100.00;101098.72;4993365;28;20085;-84
2023/01/04 10:55:02;;;;;;;10.15;3.53;;;;;;;10.95;100.00;101083.91;4984725;28;20041;-85
2023/01/04 10:57:35;;;;;;;8.02;3.55;;;;;;;11.01;100.00;101089.22;5000152;28;20060;-85
2023/01/04 11:00:06;;;;;;;17.52;5.30;;;;;;;10.97;100.00;101083.53;4991049;28;20045;-84
2023/01/04 11:02:46;;;;;;;20.08;5.45;;;;;;;11.00;100.00;101085.59;4980418;28;20026;-85
2023/01/04 11:05:14;;;;;;;13.30;4.88;;;;;;;11.06;100.00;101084.09;5007155;28;20022;-86
2023/01/04 11:07:47;;;;;;;16.65;5.63;;;;;;;11.11;100.00;101069.78;5001599;28;20030;-94
2023/01/04 11:10:15;;;;;;;19.70;5.13;;;;;;;11.16;100.00;101077.03;4991050;28;20038;-85
2023/01/04 11:12:40;;;;;;;13.18;6.22;;;;;;;11.21;100.00;101070.28;4986546;28;20089;-86
2023/01/04 11:15:06;;;;;;;23.00;5.60;;;;;;;11.18;100.00;101057.84;5008931;28;20483;-86
2023/01/04 11:17:34;;;;;;;13.02;5.97;;;;;;;11.21;100.00;101067.50;4990735;28;20088;-86
2023/01/04 11:19:59;;;;;;;17.20;5.82;;;;;;;11.22;100.00;101064.31;4990907;28;20505;-87
2023/01/04 11:22:28;;;;;;;15.52;5.80;;;;;;;11.15;100.00;101031.41;4992812;28;20022;-86
2023/01/04 11:25:00;;;;;;;27.77;8.23;;;;;;;11.15;100.00;101042.63;5003666;28;20425;-86
2023/01/04 11:27:30;;;;;;;9.25;6.15;;;;;;;11.14;100.00;101041.00;4990778;28;20720;-84
2023/01/04 11:30:15;;;;;;;15.10;5.45;;;;;;;11.29;100.00;101074.81;5004676;28;20038;-85
2023/01/04 11:32:48;;;;;;;15.93;6.38;;;;;;;11.29;100.00;101032.78;4991694;28;20438;-87
2023/01/04 11:35:14;;;;;;;17.40;5.43;;;;;;;11.31;100.00;101053.63;4994975;28;20066;-83
2023/01/04 11:37:41;;;;;;;24.35;6.05;;;;;;;11.36;100.00;101036.50;4988612;28;20054;-85
2023/01/04 11:40:17;;;;;;;18.10;5.97;;;;;;;11.40;100.00;101047.75;4989502;28;20030;-85
2023/01/04 11:43:10;;;;;;;10.80;4.70;;;;;;;11.45;100.00;101050.22;5003288;28;20128;-83
2023/01/04 11:45:35;;;;;;;;;;;;;;;11.38;100.00;101041.72;4992497;28;20486;-88
2023/01/04 11:48:05;;;;;;;11.05;4.60;;;;;;;11.27;100.00;101029.56;4986596;28;19921;-87
2023/01/04 11:50:39;;;;;;;9.85;5.00;;;;;;;11.25;100.00;101038.34;4974581;28;20031;-87
2023/01/04 11:53:21;;;;;;;9.80;3.90;;;;;;;11.24;100.00;101050.75;4989504;28;20050;-84
2023/01/04 11:55:47;;;;;;;7.35;3.92;;;;;;;11.23;100.00;101065.13;4986345;28;20046;-84
2023/01/04 11:58:14;;;;;;;8.10;4.03;;;;;;;11.24;100.00;101028.31;4990357;28;20033;-84
2023/01/04 12:00:54;;;;;;;12.27;4.80;;;;;;;11.19;100.00;101031.44;4990254;28;20046;-87
2023/01/04 12:03:27;;;;;;;10.13;4.32;;;;;;;11.23;100.00;101034.31;4985547;28;20093;-85
2023/01/04 12:05:53;;;;;;;11.98;5.03;;;;;;;11.23;100.00;101040.72;4984529;28;20105;-85